MYGF METAR and TAF weather

Enter ICAO airport designator
Station Type Date Time Source
MYGF METAR 2022/06/28 14:00 UTC NOAA

MYGF 281400Z 11010KT 070V160 9999 SCT022 29/22 A3009


Station Type Date Time Source
MYGF Decoded METAR 2022/06/28 14:00 UTC NOAA

Freeport, Grand Bahama, Bahamas, The (MYGF) 26-33N 078-42W 11M
Jun 28, 2022 - 10:00 AM EDT / 2022.06.28 1400 UTC
Wind: from the ESE (110 degrees) at 12 MPH (10 KT) (direction variable):0
Visibility: greater than 7 mile(s):0
Sky conditions: partly cloudy
Temperature: 84 F (29 C)
Dew Point: 71 F (22 C)
Relative Humidity: 65%
Pressure (altimeter): 30.09 in. Hg (1018 hPa)
ob: MYGF 281400Z 11010KT 070V160 9999 SCT022 29/22 A3009
cycle: 14

Station Type Date Time Source
MYGF TAF 2022/06/28 12:14 UTC NOAA

TAF MYGF 280930Z 2812/2912 14008KT 9999 VCSH FEW018CB SCT020 BKN060
FM281800 11009KT 8000 SHRA VCTS SCT015CB BKN020 BKN150

Example: see airport list